Adams, Tennessee
Current Conditions -  °F | °C
As of 10:35 AM on Saturday 22 Nov 2014 (Local Time) from KM91 Reporting Station
Clear Clear  
Wind Chill: 57°   Ceiling: Unl
Heat Index: 57°   Visibility: 10mi
Dew Point: 36°   Wind: 13mph
Humidity: 44%   Direction: 200°SSW
Pressure: 30.28"   Gusts: NA
Location:  36.58°N, 87.07°W
Report Text: KM91 221635Z AUTO 20011KT 10SM CLR 14/02 A3028 RMK
Loading
Personal Weather Stations






























Interactive Weather Map New forecast layout! Learn more

10-Day Weather Forecast

Advertisements
Track Severe Weather on mobile